createdAt,value
2018-10-09T00:01:50.061Z,59.70
2018-10-09T00:04:18.494Z,58.83
2018-10-09T00:06:46.885Z,61.77
2018-10-09T00:09:15.287Z,58.77
2018-10-09T00:11:43.603Z,55.83
2018-10-09T00:14:11.929Z,53.87
2018-10-09T00:16:40.341Z,52.50
2018-10-09T00:19:08.626Z,53.50
2018-10-09T00:21:36.885Z,50.67
2018-10-09T00:24:05.270Z,50.23
2018-10-09T00:26:33.611Z,52.43
2018-10-09T00:29:01.944Z,51.57
2018-10-09T00:31:30.212Z,50.97
2018-10-09T00:33:58.602Z,50.27
2018-10-09T00:36:26.913Z,51.40
2018-10-09T00:38:55.189Z,49.93
2018-10-09T00:41:23.685Z,49.70
2018-10-09T00:43:52.009Z,49.30
2018-10-09T00:46:20.294Z,48.83
2018-10-09T00:48:48.620Z,48.20
2018-10-09T00:51:17.169Z,51.07
2018-10-09T00:53:45.507Z,50.47
2018-10-09T00:56:13.783Z,49.83
2018-10-09T00:58:42.065Z,50.43
2018-10-09T01:01:10.601Z,48.13
2018-10-09T01:03:38.915Z,49.23
2018-10-09T01:06:07.471Z,50.57
2018-10-09T01:08:35.816Z,51.90
2018-10-09T01:11:04.235Z,51.20
2018-10-09T01:13:32.664Z,49.90
2018-10-09T01:16:01.024Z,49.63
2018-10-09T01:18:29.452Z,51.50
2018-10-09T01:20:57.799Z,53.20
2018-10-09T01:23:26.103Z,52.10
2018-10-09T01:25:54.551Z,54.10
2018-10-09T01:28:22.807Z,55.13
2018-10-09T01:30:51.121Z,52.47
2018-10-09T01:33:19.390Z,55.40
2018-10-09T01:35:47.834Z,54.40
2018-10-09T01:38:16.195Z,56.27
2018-10-09T01:40:44.539Z,55.70
2018-10-09T01:43:12.947Z,56.47
2018-10-09T01:45:41.375Z,53.37
2018-10-09T01:48:09.678Z,53.37
2018-10-09T01:50:38.087Z,52.33
2018-10-09T01:53:06.402Z,53.40
2018-10-09T01:55:34.676Z,53.53
2018-10-09T01:58:02.954Z,52.03
2018-10-09T02:00:31.450Z,52.47
2018-10-09T02:02:59.707Z,52.23
2018-10-09T02:05:28.119Z,53.83
2018-10-09T02:07:56.425Z,51.90
2018-10-09T02:10:24.687Z,49.97
2018-10-09T02:12:53.227Z,49.80
2018-10-09T02:15:21.503Z,49.87
2018-10-09T02:17:49.960Z,50.50
2018-10-09T02:20:18.265Z,52.97
2018-10-09T02:22:46.541Z,53.50
2018-10-09T02:25:14.836Z,53.40
2018-10-09T02:27:43.128Z,52.83
2018-10-09T02:30:11.685Z,55.73
2018-10-09T02:32:40.026Z,56.53
2018-10-09T02:35:08.414Z,54.20
2018-10-09T02:37:36.869Z,53.97
2018-10-09T02:40:06.271Z,56.60
2018-10-09T02:42:34.722Z,55.03
2018-10-09T02:45:03.064Z,55.67
2018-10-09T02:47:31.417Z,55.30
2018-10-09T02:49:59.884Z,59.07
2018-10-09T02:52:28.188Z,56.83
2018-10-09T02:54:56.639Z,55.93
2018-10-09T02:57:24.952Z,57.07
2018-10-09T02:59:53.222Z,54.27
2018-10-09T03:02:22.125Z,57.10
2018-10-09T03:04:50.381Z,58.33
2018-10-09T03:07:18.702Z,55.53
2018-10-09T03:09:47.088Z,53.77
2018-10-09T03:12:15.363Z,53.03
2018-10-09T03:14:43.773Z,51.93
2018-10-09T03:17:12.100Z,54.27
2018-10-09T03:19:40.479Z,54.20
2018-10-09T03:22:09.009Z,57.43
2018-10-09T03:24:37.419Z,60.60
2018-10-09T03:27:05.748Z,55.03
2018-10-09T03:29:34.058Z,59.30
2018-10-09T03:32:04.520Z,62.60
2018-10-09T03:34:32.883Z,56.67
2018-10-09T03:37:01.150Z,54.80
2018-10-09T03:39:29.463Z,52.97
2018-10-09T03:41:57.796Z,52.60
2018-10-09T03:44:26.095Z,52.20
2018-10-09T03:46:54.435Z,61.33
2018-10-09T03:49:22.785Z,52.53
2018-10-09T03:51:51.485Z,60.60
2018-10-09T03:54:19.728Z,54.80
2018-10-09T03:56:48.173Z,54.70
2018-10-09T03:59:16.451Z,56.87
2018-10-09T04:01:44.715Z,61.90
2018-10-09T04:04:13.015Z,57.17
2018-10-09T04:06:41.375Z,52.80
2018-10-09T04:09:11.892Z,52.13
2018-10-09T04:11:40.264Z,53.13
2018-10-09T04:14:08.623Z,51.90
2018-10-09T04:16:37.099Z,54.77
2018-10-09T04:19:05.649Z,55.53
2018-10-09T04:21:34.011Z,57.53
2018-10-09T04:24:02.304Z,55.10
2018-10-09T04:29:06.115Z,55.57
2018-10-09T04:31:34.475Z,55.20
2018-10-09T04:34:02.742Z,50.13
2018-10-09T04:36:31.092Z,49.47
2018-10-09T04:38:59.437Z,49.23
2018-10-09T04:41:27.672Z,47.93
2018-10-09T04:43:56.045Z,47.97
2018-10-09T04:46:24.603Z,49.13
2018-10-09T04:48:52.857Z,48.67
2018-10-09T04:51:21.132Z,48.20
2018-10-09T04:53:49.409Z,48.97
2018-10-09T04:56:17.659Z,49.93
2018-10-09T04:58:46.009Z,50.30
2018-10-09T05:01:14.441Z,48.43
2018-10-09T05:03:42.743Z,49.20
2018-10-09T05:06:11.317Z,49.40
2018-10-09T05:08:39.597Z,49.87
2018-10-09T05:11:07.991Z,49.00
2018-10-09T05:13:36.304Z,48.77
2018-10-09T05:16:04.875Z,49.57
2018-10-09T05:18:33.255Z,50.63
2018-10-09T05:21:01.692Z,52.67
2018-10-09T05:23:30.172Z,50.37
2018-10-09T05:25:58.695Z,51.23
2018-10-09T05:28:26.933Z,50.00
2018-10-09T05:30:55.318Z,47.00
2018-10-09T05:33:23.680Z,49.50
2018-10-09T05:35:52.005Z,52.10
2018-10-09T05:38:20.289Z,42.77
2018-10-09T05:40:48.679Z,40.97
2018-10-09T05:43:16.991Z,42.03
2018-10-09T05:45:45.290Z,41.40
2018-10-09T05:48:13.747Z,37.80
2018-10-09T05:50:42.188Z,39.10
2018-10-09T05:53:10.441Z,40.83
2018-10-09T05:55:38.721Z,40.70
2018-10-09T05:58:07.455Z,40.23
2018-10-09T06:00:35.798Z,39.33
2018-10-09T06:03:04.188Z,39.90
2018-10-09T06:05:33.178Z,40.60
2018-10-09T06:08:01.463Z,40.17
2018-10-09T06:10:29.834Z,46.10
2018-10-09T06:12:58.336Z,44.33
2018-10-09T06:15:26.799Z,42.50
2018-10-09T06:18:01.350Z,42.13
2018-10-09T06:20:29.668Z,44.50
2018-10-09T06:22:57.947Z,45.67
2018-10-09T06:25:26.420Z,44.57
2018-10-09T06:27:54.907Z,43.87
2018-10-09T06:30:23.369Z,44.40
2018-10-09T06:32:51.950Z,47.17
2018-10-09T06:35:20.282Z,45.93
2018-10-09T06:37:48.657Z,47.10
2018-10-09T06:40:17.267Z,45.73
2018-10-09T06:42:45.620Z,45.83
2018-10-09T06:45:14.178Z,45.27
2018-10-09T06:47:42.898Z,45.00
2018-10-09T06:50:11.199Z,46.40
2018-10-09T06:52:39.724Z,45.70
2018-10-09T06:55:08.062Z,45.20
2018-10-09T06:57:36.489Z,43.17
2018-10-09T07:00:05.134Z,48.00
2018-10-09T07:02:33.441Z,44.90
2018-10-09T07:05:01.759Z,45.70
2018-10-09T07:07:30.130Z,44.27
2018-10-09T07:09:58.503Z,45.10
2018-10-09T07:12:43.528Z,45.23
2018-10-09T07:15:12.970Z,50.33
2018-10-09T07:17:41.872Z,52.70
2018-10-09T07:20:10.438Z,49.37
2018-10-09T07:22:38.828Z,49.93
2018-10-09T07:25:08.285Z,49.00
2018-10-09T07:27:36.650Z,50.87
2018-10-09T07:30:06.228Z,42.97
2018-10-09T07:32:34.732Z,38.27
2018-10-09T07:35:03.101Z,38.53
2018-10-09T07:37:31.811Z,37.80
2018-10-09T07:40:00.227Z,39.43
2018-10-09T07:42:29.698Z,39.20
2018-10-09T07:44:58.085Z,40.87
2018-10-09T07:47:26.438Z,39.57
2018-10-09T07:49:55.747Z,40.50
2018-10-09T07:52:24.127Z,42.13
2018-10-09T07:54:53.662Z,42.80
2018-10-09T07:57:21.984Z,47.37
2018-10-09T07:59:50.470Z,44.77
2018-10-09T08:02:18.760Z,41.77
2018-10-09T08:04:47.277Z,41.97
2018-10-09T08:07:15.690Z,40.53
2018-10-09T08:09:43.976Z,42.00
2018-10-09T08:12:12.611Z,42.90
2018-10-09T08:14:40.899Z,43.63
2018-10-09T08:17:11.643Z,43.53
2018-10-09T08:19:39.963Z,43.57
2018-10-09T08:22:08.437Z,43.47
2018-10-09T08:24:37.990Z,43.67
2018-10-09T08:27:06.633Z,42.47
2018-10-09T08:29:36.610Z,43.63
2018-10-09T08:32:05.067Z,43.23
2018-10-09T08:34:33.584Z,43.23
2018-10-09T08:37:01.908Z,42.40
2018-10-09T08:39:30.378Z,44.67
2018-10-09T08:41:58.759Z,42.70
2018-10-09T08:44:29.801Z,43.67
2018-10-09T08:46:59.156Z,41.33
2018-10-09T08:49:27.486Z,41.83
2018-10-09T08:51:56.102Z,42.83
2018-10-09T08:54:25.010Z,44.03
2018-10-09T08:56:53.361Z,44.03
2018-10-09T08:59:26.564Z,43.23
2018-10-09T09:01:54.806Z,43.07
2018-10-09T09:04:23.097Z,42.87
2018-10-09T09:06:51.363Z,43.13
2018-10-09T09:09:19.711Z,43.23
2018-10-09T09:11:48.595Z,41.13
2018-10-09T09:14:17.110Z,42.87
2018-10-09T09:16:45.762Z,41.83
2018-10-09T09:19:14.349Z,42.93
2018-10-09T09:21:43.302Z,41.53
2018-10-09T09:24:11.652Z,45.20
2018-10-09T09:26:41.865Z,56.27
2018-10-09T09:29:10.140Z,43.83
2018-10-09T09:31:38.453Z,41.80
2018-10-09T09:34:07.044Z,41.30
2018-10-09T09:36:35.731Z,42.07
2018-10-09T09:39:04.596Z,40.03
2018-10-09T09:41:32.881Z,42.27
2018-10-09T09:44:01.157Z,39.70
2018-10-09T09:46:29.669Z,39.27
2018-10-09T09:48:59.288Z,37.90
2018-10-09T09:51:27.576Z,38.20
2018-10-09T09:53:56.596Z,38.97
2018-10-09T09:56:25.595Z,38.90
2018-10-09T09:58:54.692Z,37.73
2018-10-09T10:01:28.432Z,38.63
2018-10-09T10:03:56.886Z,37.50
2018-10-09T10:06:25.230Z,42.23
2018-10-09T10:08:53.570Z,36.50
2018-10-09T10:11:22.133Z,37.83
2018-10-09T10:13:50.448Z,34.90
2018-10-09T10:16:18.761Z,34.73
2018-10-09T10:18:47.061Z,33.20
2018-10-09T10:21:15.386Z,31.30
2018-10-09T10:23:43.730Z,29.90
2018-10-09T10:26:12.172Z,28.83
2018-10-09T10:28:40.484Z,30.52
2018-10-09T10:31:08.910Z,30.37
2018-10-09T10:33:37.322Z,34.78
2018-10-09T10:36:05.580Z,35.80
2018-10-09T10:38:34.033Z,27.00
2018-10-09T10:41:02.307Z,24.77
2018-10-09T10:43:30.645Z,24.18
2018-10-09T10:45:59.075Z,24.30
2018-10-09T10:48:27.348Z,25.23
2018-10-09T10:50:55.964Z,24.07
2018-10-09T10:53:24.310Z,21.17
2018-10-09T10:55:53.004Z,20.17
2018-10-09T10:58:21.421Z,18.98
2018-10-09T11:00:50.144Z,18.42
2018-10-09T11:03:18.711Z,18.42
2018-10-09T11:05:47.000Z,17.40
2018-10-09T11:08:15.284Z,19.82
2018-10-09T11:10:43.544Z,20.72
2018-10-09T11:13:11.912Z,19.67
2018-10-09T11:15:40.362Z,21.50
2018-10-09T11:18:08.611Z,20.97
2018-10-09T11:20:36.974Z,19.90
2018-10-09T11:23:07.244Z,19.15
2018-10-09T11:25:35.612Z,20.52
2018-10-09T11:28:03.946Z,19.40
2018-10-09T11:30:32.206Z,19.50
2018-10-09T11:33:00.590Z,19.95
2018-10-09T11:35:28.843Z,18.98
2018-10-09T11:37:57.161Z,18.20
2018-10-09T11:40:25.471Z,17.80
2018-10-09T11:42:53.876Z,17.00
2018-10-09T11:45:22.245Z,17.23
2018-10-09T11:47:50.736Z,16.48
2018-10-09T11:50:19.062Z,16.25
2018-10-09T11:52:47.432Z,16.32
2018-10-09T11:55:15.889Z,16.52
2018-10-09T11:57:44.316Z,15.65
2018-10-09T12:00:12.634Z,15.05
2018-10-09T12:02:40.958Z,16.77
2018-10-09T12:05:09.820Z,15.80
2018-10-09T12:07:38.200Z,13.95
2018-10-09T12:10:06.545Z,16.05
2018-10-09T12:12:36.931Z,15.38
2018-10-09T12:15:05.684Z,13.85
2018-10-09T12:17:33.979Z,13.93
2018-10-09T12:20:02.246Z,15.18
2018-10-09T12:22:30.645Z,14.98
2018-10-09T12:24:59.018Z,15.65
2018-10-09T12:27:30.959Z,16.32
2018-10-09T12:29:59.387Z,15.32
2018-10-09T12:32:28.060Z,15.05
2018-10-09T12:34:56.401Z,14.35
2018-10-09T12:37:25.741Z,16.30
2018-10-09T12:39:54.154Z,15.68
2018-10-09T12:42:22.955Z,14.10
2018-10-09T12:44:51.315Z,13.70
2018-10-09T12:47:19.690Z,13.35
2018-10-09T12:49:48.078Z,14.30
2018-10-09T12:52:16.475Z,13.53
2018-10-09T12:54:45.570Z,13.45
2018-10-09T12:57:14.461Z,14.83
2018-10-09T12:59:42.768Z,13.10
2018-10-09T13:02:11.171Z,13.78
2018-10-09T13:04:39.671Z,13.32
2018-10-09T13:07:08.417Z,13.45
2018-10-09T13:09:36.899Z,13.20
2018-10-09T13:12:05.329Z,14.20
2018-10-09T13:14:33.818Z,13.28
2018-10-09T13:17:02.373Z,13.22
2018-10-09T13:19:43.973Z,12.47
2018-10-09T13:22:29.397Z,12.43
2018-10-09T13:24:57.408Z,12.47
2018-10-09T13:27:25.738Z,15.50
2018-10-09T13:29:54.131Z,13.20
2018-10-09T13:32:22.460Z,13.60
2018-10-09T13:34:50.751Z,13.15
2018-10-09T13:37:19.386Z,12.82
2018-10-09T13:39:47.705Z,26.40
2018-10-09T13:42:16.024Z,11.35
2018-10-09T13:44:44.358Z,11.53
2018-10-09T13:47:12.810Z,12.88
2018-10-09T13:49:41.241Z,12.13
2018-10-09T13:52:09.705Z,12.03
2018-10-09T13:54:38.018Z,11.65
2018-10-09T13:57:06.729Z,11.90
2018-10-09T13:59:35.300Z,12.93
2018-10-09T14:02:03.822Z,12.40
2018-10-09T14:04:32.116Z,12.35
2018-10-09T14:07:00.524Z,12.43
2018-10-09T14:09:28.774Z,12.45
2018-10-09T14:11:57.097Z,11.63
2018-10-09T14:14:25.397Z,12.03
2018-10-09T14:16:53.724Z,11.83
2018-10-09T14:19:22.061Z,12.00
2018-10-09T14:21:50.564Z,12.30
2018-10-09T14:24:18.865Z,10.95
2018-10-09T14:26:47.174Z,11.57
2018-10-09T14:29:15.488Z,11.73
2018-10-09T14:31:43.978Z,11.95
2018-10-09T14:34:12.307Z,10.48
2018-10-09T14:36:40.888Z,10.75
2018-10-09T14:39:09.575Z,10.95
2018-10-09T14:41:38.181Z,11.18
2018-10-09T14:44:06.735Z,11.22
2018-10-09T14:46:35.133Z,11.08
2018-10-09T14:49:03.381Z,11.35
2018-10-09T14:51:31.887Z,10.98
2018-10-09T14:54:00.216Z,11.83
2018-10-09T14:56:28.532Z,10.88
2018-10-09T14:58:56.824Z,10.80
2018-10-09T15:01:25.196Z,11.43
2018-10-09T15:03:53.753Z,11.40
2018-10-09T15:06:22.479Z,11.15
2018-10-09T15:10:20.062Z,10.95
2018-10-09T15:12:48.417Z,10.85
2018-10-09T15:15:16.764Z,10.55
2018-10-09T15:17:45.182Z,10.60
2018-10-09T15:20:13.764Z,10.68
2018-10-09T15:22:42.102Z,10.60
2018-10-09T15:25:10.495Z,11.28
2018-10-09T15:27:38.926Z,10.40
2018-10-09T15:30:07.275Z,10.43
2018-10-09T15:32:35.718Z,10.90
2018-10-09T15:35:03.992Z,10.90
2018-10-09T15:37:32.544Z,10.45
2018-10-09T15:40:00.859Z,10.70
2018-10-09T15:42:29.303Z,10.72
2018-10-09T15:44:57.622Z,10.15
2018-10-09T15:47:25.917Z,9.18
2018-10-09T15:49:54.149Z,10.00
2018-10-09T15:52:22.413Z,9.83
2018-10-09T15:54:50.715Z,10.13
2018-10-09T15:57:19.154Z,10.25
2018-10-09T15:59:47.492Z,11.05
2018-10-09T16:02:16.388Z,10.20
2018-10-09T16:04:44.664Z,9.90
2018-10-09T16:07:13.116Z,10.63
2018-10-09T16:09:41.986Z,10.28
2018-10-09T16:12:10.342Z,11.03
2018-10-09T16:14:38.723Z,11.10
2018-10-09T16:17:07.287Z,11.20
2018-10-09T16:19:35.818Z,11.68
2018-10-09T16:22:04.444Z,11.35
2018-10-09T16:24:32.712Z,14.68
2018-10-09T16:27:01.004Z,12.68
2018-10-09T16:29:29.340Z,12.58
2018-10-09T16:31:57.659Z,12.53
2018-10-09T16:34:25.927Z,12.45
2018-10-09T16:36:54.183Z,16.00
2018-10-09T16:39:22.500Z,16.37
2018-10-09T16:41:50.841Z,14.30
2018-10-09T16:44:19.230Z,14.17
2018-10-09T16:46:47.628Z,15.80
2018-10-09T16:49:15.951Z,15.73
2018-10-09T16:51:44.301Z,18.57
2018-10-09T16:54:12.706Z,18.87
2018-10-09T16:56:41.006Z,20.03
2018-10-09T16:59:09.319Z,20.33
2018-10-09T17:01:38.013Z,21.70
2018-10-09T17:04:06.380Z,19.70
2018-10-09T17:06:34.929Z,18.90
2018-10-09T17:09:03.455Z,19.23
2018-10-09T17:11:31.956Z,22.27
2018-10-09T17:14:00.451Z,22.57
2018-10-09T17:16:28.800Z,23.10
2018-10-09T17:18:57.136Z,25.60
2018-10-09T17:21:25.434Z,22.90
2018-10-09T17:23:54.340Z,23.83
2018-10-09T17:26:22.802Z,24.30
2018-10-09T17:28:51.792Z,23.77
2018-10-09T17:31:20.220Z,24.23
2018-10-09T17:33:48.570Z,24.97
2018-10-09T17:36:17.112Z,24.97
2018-10-09T17:38:45.514Z,26.53
2018-10-09T17:41:13.888Z,25.50
2018-10-09T17:43:42.444Z,27.57
2018-10-09T17:46:11.107Z,29.10
2018-10-09T17:48:39.555Z,28.47
2018-10-09T17:51:07.933Z,29.30
2018-10-09T17:53:36.273Z,29.10
2018-10-09T17:56:05.212Z,28.93
2018-10-09T17:58:33.505Z,28.73
2018-10-09T18:01:01.852Z,29.17
2018-10-09T18:03:30.286Z,28.27
2018-10-09T18:05:58.740Z,29.90
2018-10-09T18:08:27.147Z,29.40
2018-10-09T18:10:55.475Z,29.73
2018-10-09T18:13:24.038Z,28.80
2018-10-09T18:15:52.290Z,30.17
2018-10-09T18:18:20.704Z,29.87
2018-10-09T18:20:49.098Z,31.20
2018-10-09T18:23:17.376Z,31.17
2018-10-09T18:25:45.620Z,31.67
2018-10-09T18:28:13.946Z,31.97
2018-10-09T18:30:42.291Z,31.13
2018-10-09T18:33:10.689Z,32.13
2018-10-09T18:35:38.976Z,32.53
2018-10-09T18:38:07.385Z,31.97
2018-10-09T18:40:35.831Z,31.87
2018-10-09T18:43:04.077Z,32.53
2018-10-09T18:45:32.505Z,32.93
2018-10-09T18:48:00.830Z,30.87
2018-10-09T18:50:29.224Z,30.30
2018-10-09T18:52:59.371Z,31.30
2018-10-09T18:55:27.727Z,32.03
2018-10-09T18:57:56.123Z,31.43
2018-10-09T19:00:24.512Z,32.87
2018-10-09T19:02:52.859Z,33.50
2018-10-09T19:05:21.256Z,35.23
2018-10-09T19:07:49.611Z,34.83
2018-10-09T19:10:17.953Z,36.50
2018-10-09T19:12:46.240Z,36.23
2018-10-09T19:15:14.705Z,36.57
2018-10-09T19:17:43.030Z,37.77
2018-10-09T19:20:11.256Z,36.70
2018-10-09T19:22:39.603Z,36.27
2018-10-09T19:25:08.204Z,37.00
2018-10-09T19:27:36.742Z,37.20
2018-10-09T19:30:05.969Z,38.57
2018-10-09T19:32:34.369Z,38.10
2018-10-09T19:35:09.915Z,38.27
2018-10-09T19:37:38.525Z,38.87
2018-10-09T19:40:06.982Z,38.80
2018-10-09T19:42:35.315Z,39.77
2018-10-09T19:45:03.688Z,38.77
2018-10-09T19:47:35.168Z,39.03
2018-10-09T19:50:04.652Z,40.07
2018-10-09T19:52:32.920Z,39.27
2018-10-09T19:55:01.301Z,40.20
2018-10-09T19:57:29.904Z,39.40
2018-10-09T19:59:58.503Z,39.30
2018-10-09T20:02:26.838Z,40.43
2018-10-09T20:04:55.266Z,40.03
2018-10-09T20:07:23.696Z,40.60
2018-10-09T20:09:51.996Z,38.73
2018-10-09T20:12:20.284Z,40.97
2018-10-09T20:14:48.646Z,40.30
2018-10-09T20:17:17.012Z,40.90
2018-10-09T20:19:45.310Z,40.73
2018-10-09T20:22:13.851Z,40.17
2018-10-09T20:24:43.437Z,42.63
2018-10-09T20:27:11.813Z,42.53
2018-10-09T20:29:40.088Z,41.10
2018-10-09T20:32:08.466Z,42.73
2018-10-09T20:34:36.742Z,41.20
2018-10-09T20:37:05.128Z,41.50
2018-10-09T20:39:33.634Z,44.00
2018-10-09T20:42:02.364Z,42.57
2018-10-09T20:44:30.844Z,43.47
2018-10-09T20:46:59.156Z,42.03
2018-10-09T20:49:27.609Z,43.20
2018-10-09T20:51:56.091Z,42.87
2018-10-09T20:54:24.620Z,42.70
2018-10-09T20:56:53.036Z,44.47
2018-10-09T20:59:22.040Z,43.63
2018-10-09T21:01:50.370Z,45.63
2018-10-09T21:04:18.778Z,44.43
2018-10-09T21:06:47.211Z,43.20
2018-10-09T21:09:15.697Z,44.20
2018-10-09T21:11:44.361Z,45.63
2018-10-09T21:14:12.919Z,45.57
2018-10-09T21:16:41.280Z,44.87
2018-10-09T21:19:09.714Z,43.67
2018-10-09T21:21:38.097Z,43.83
2018-10-09T21:24:06.899Z,42.67
2018-10-09T21:26:36.087Z,44.03
2018-10-09T21:29:08.429Z,43.77
2018-10-09T21:31:38.811Z,46.00
2018-10-09T21:34:07.134Z,45.73
2018-10-09T21:36:35.644Z,45.80
2018-10-09T21:39:05.236Z,45.97
2018-10-09T21:41:33.542Z,46.67
2018-10-09T21:44:01.924Z,47.97
2018-10-09T21:46:30.212Z,46.77
2018-10-09T21:48:58.870Z,45.43
2018-10-09T21:51:27.409Z,45.40
2018-10-09T21:53:56.635Z,45.77
2018-10-09T21:56:24.957Z,48.17
2018-10-09T21:58:53.215Z,45.40
2018-10-09T22:01:21.704Z,47.43
2018-10-09T22:03:50.304Z,45.70
2018-10-09T22:06:18.588Z,44.87
2018-10-09T22:08:46.899Z,45.27
2018-10-09T22:11:15.520Z,44.83
2018-10-09T22:13:44.142Z,47.53
2018-10-09T22:16:13.063Z,46.30
2018-10-09T22:18:41.421Z,47.33
2018-10-09T22:21:09.690Z,47.93
2018-10-09T22:23:38.175Z,46.63
2018-10-09T22:26:06.534Z,48.70
2018-10-09T22:28:35.136Z,52.17
2018-10-09T22:31:03.560Z,49.97
2018-10-09T22:33:31.981Z,50.93
2018-10-09T22:36:00.285Z,50.67
2018-10-09T22:38:29.914Z,49.60
2018-10-09T22:40:59.107Z,50.10
2018-10-09T22:43:27.581Z,52.83
2018-10-09T22:45:56.517Z,51.80
2018-10-09T22:48:24.834Z,52.80
2018-10-09T22:50:54.249Z,54.77
2018-10-09T22:53:22.588Z,52.77
2018-10-09T22:55:51.395Z,53.47
2018-10-09T22:58:19.755Z,51.07
2018-10-09T23:00:48.132Z,50.27
2018-10-09T23:03:16.480Z,51.03
2018-10-09T23:05:45.078Z,50.90
2018-10-09T23:08:15.224Z,51.27
2018-10-09T23:10:43.728Z,52.33
2018-10-09T23:13:12.067Z,52.07
2018-10-09T23:15:40.347Z,49.33
2018-10-09T23:18:08.838Z,54.70
2018-10-09T23:20:37.097Z,52.60
2018-10-09T23:23:05.415Z,52.53
2018-10-09T23:25:33.775Z,53.43
2018-10-09T23:28:02.116Z,56.17
2018-10-09T23:30:30.440Z,55.73
2018-10-09T23:32:58.812Z,54.87
2018-10-09T23:35:27.156Z,53.63
2018-10-09T23:37:55.489Z,52.50
2018-10-09T23:40:23.760Z,54.07
2018-10-09T23:42:52.123Z,52.03
2018-10-09T23:45:20.403Z,50.60
2018-10-09T23:47:48.769Z,52.87
2018-10-09T23:50:17.085Z,53.93
2018-10-09T23:52:45.401Z,52.90
2018-10-09T23:55:13.812Z,51.33
2018-10-09T23:57:42.120Z,54.73
